sensor_id;sensor_type;location;lat;lon;timestamp;pressure;altitude;pressure_sealevel;temperature;humidity
73974;BME280;62336;-26.094;27.994;2022-11-15T00:00:52;85221.56;;;29.46;21.96
73974;BME280;62336;-26.094;27.994;2022-11-15T00:03:18;85219.13;;;28.87;22.08
73974;BME280;62336;-26.094;27.994;2022-11-15T00:05:44;85218.40;;;28.70;22.14
73974;BME280;62336;-26.094;27.994;2022-11-15T00:08:08;85215.34;;;28.99;22.05
73974;BME280;62336;-26.094;27.994;2022-11-15T00:10:33;85211.98;;;29.26;21.97
73974;BME280;62336;-26.094;27.994;2022-11-15T00:12:58;85213.27;;;28.81;21.84
73974;BME280;62336;-26.094;27.994;2022-11-15T00:15:24;85210.76;;;28.58;21.98
73974;BME280;62336;-26.094;27.994;2022-11-15T00:17:49;85207.66;;;28.92;22.07
73974;BME280;62336;-26.094;27.994;2022-11-15T00:20:15;85207.69;;;28.83;21.83
73974;BME280;62336;-26.094;27.994;2022-11-15T00:22:39;85209.97;;;28.33;22.13
73974;BME280;62336;-26.094;27.994;2022-11-15T00:25:06;85209.41;;;28.20;22.19
73974;BME280;62336;-26.094;27.994;2022-11-15T00:27:31;85211.17;;;28.88;22.11
73974;BME280;62336;-26.094;27.994;2022-11-15T00:29:56;85213.44;;;28.66;21.93
73974;BME280;62336;-26.094;27.994;2022-11-15T00:32:21;85209.48;;;28.57;22.07
73974;BME280;62336;-26.094;27.994;2022-11-15T00:34:46;85212.56;;;28.63;22.30
73974;BME280;62336;-26.094;27.994;2022-11-15T00:37:11;85216.05;;;28.32;22.35
73974;BME280;62336;-26.094;27.994;2022-11-15T00:39:36;85219.44;;;28.58;22.18
73974;BME280;62336;-26.094;27.994;2022-11-15T00:42:01;85219.50;;;28.70;22.28
73974;BME280;62336;-26.094;27.994;2022-11-15T00:44:27;85218.47;;;28.13;22.44
73974;BME280;62336;-26.094;27.994;2022-11-15T00:46:53;85216.66;;;28.10;22.31
73974;BME280;62336;-26.094;27.994;2022-11-15T00:49:18;85220.66;;;28.61;22.42
73974;BME280;62336;-26.094;27.994;2022-11-15T00:51:43;85220.01;;;28.17;22.56
73974;BME280;62336;-26.094;27.994;2022-11-15T00:54:08;85219.34;;;28.50;22.46
73974;BME280;62336;-26.094;27.994;2022-11-15T00:56:34;85216.24;;;28.52;22.37
73974;BME280;62336;-26.094;27.994;2022-11-15T00:58:59;85213.28;;;28.44;22.54
73974;BME280;62336;-26.094;27.994;2022-11-15T01:01:25;85213.90;;;28.62;22.63
73974;BME280;62336;-26.094;27.994;2022-11-15T01:03:51;85214.48;;;27.98;22.76
73974;BME280;62336;-26.094;27.994;2022-11-15T01:06:17;85214.76;;;28.24;22.49
73974;BME280;62336;-26.094;27.994;2022-11-15T01:08:43;85215.72;;;28.43;22.66
73974;BME280;62336;-26.094;27.994;2022-11-15T01:11:11;85218.84;;;28.22;22.61
73974;BME280;62336;-26.094;27.994;2022-11-15T01:13:35;85220.72;;;28.46;22.63
73974;BME280;62336;-26.094;27.994;2022-11-15T01:15:59;85220.35;;;28.07;22.65
73974;BME280;62336;-26.094;27.994;2022-11-15T01:18:25;85221.49;;;28.88;22.39
73974;BME280;62336;-26.094;27.994;2022-11-15T01:20:51;85224.69;;;28.71;22.44
73974;BME280;62336;-26.094;27.994;2022-11-15T01:23:15;85225.34;;;28.12;22.36
73974;BME280;62336;-26.094;27.994;2022-11-15T01:25:42;85218.23;;;27.97;22.61
73974;BME280;62336;-26.094;27.994;2022-11-15T01:28:08;85220.11;;;27.76;22.96
73974;BME280;62336;-26.094;27.994;2022-11-15T01:30:32;85219.62;;;27.73;23.05
73974;BME280;62336;-26.094;27.994;2022-11-15T01:32:57;85217.44;;;28.01;23.06
73974;BME280;62336;-26.094;27.994;2022-11-15T01:35:22;85214.72;;;28.30;22.73
73974;BME280;62336;-26.094;27.994;2022-11-15T01:37:47;85218.10;;;28.09;22.99
73974;BME280;62336;-26.094;27.994;2022-11-15T01:40:14;85217.44;;;28.04;22.93
73974;BME280;62336;-26.094;27.994;2022-11-15T01:42:39;85218.61;;;28.78;22.55
73974;BME280;62336;-26.094;27.994;2022-11-15T01:45:07;85217.39;;;28.35;22.77
73974;BME280;62336;-26.094;27.994;2022-11-15T01:47:35;85223.84;;;28.57;22.72
73974;BME280;62336;-26.094;27.994;2022-11-15T01:50:00;85219.54;;;28.36;22.88
73974;BME280;62336;-26.094;27.994;2022-11-15T01:52:25;85220.09;;;28.44;22.77
73974;BME280;62336;-26.094;27.994;2022-11-15T01:54:50;85224.42;;;28.66;22.58
73974;BME280;62336;-26.094;27.994;2022-11-15T01:57:14;85223.91;;;28.34;22.77
73974;BME280;62336;-26.094;27.994;2022-11-15T01:59:41;85225.86;;;28.38;22.86
73974;BME280;62336;-26.094;27.994;2022-11-15T03:15:49;85276.40;;;8.38;79.17
73974;BME280;62336;-26.094;27.994;2022-11-15T03:18:12;85265.86;;;13.13;54.60
73974;BME280;62336;-26.094;27.994;2022-11-15T03:20:35;85261.72;;;17.30;43.73
73974;BME280;62336;-26.094;27.994;2022-11-15T03:23:03;85258.04;;;20.46;35.95
73974;BME280;62336;-26.094;27.994;2022-11-15T03:25:26;85262.64;;;22.85;30.63
73974;BME280;62336;-26.094;27.994;2022-11-15T03:27:51;85260.83;;;24.46;26.58
73974;BME280;62336;-26.094;27.994;2022-11-15T03:30:14;85262.05;;;25.36;24.87
73974;BME280;62336;-26.094;27.994;2022-11-15T03:32:41;85261.57;;;26.67;23.46
73974;BME280;62336;-26.094;27.994;2022-11-15T03:35:08;85268.26;;;27.72;21.66
73974;BME280;62336;-26.094;27.994;2022-11-15T03:37:35;85269.60;;;28.27;21.01
73974;BME280;62336;-26.094;27.994;2022-11-15T03:39:55;85269.31;;;29.00;20.37
73974;BME280;62336;-26.094;27.994;2022-11-15T03:42:26;85275.37;;;29.00;19.94
73974;BME280;62336;-26.094;27.994;2022-11-15T03:44:51;85274.21;;;29.48;19.54
73974;BME280;62336;-26.094;27.994;2022-11-15T03:47:18;85279.17;;;30.02;18.80
73974;BME280;62336;-26.094;27.994;2022-11-15T03:49:42;85286.43;;;30.46;18.55
73974;BME280;62336;-26.094;27.994;2022-11-15T03:52:04;85292.38;;;30.58;18.39
73974;BME280;62336;-26.094;27.994;2022-11-15T03:54:29;85297.16;;;30.71;18.08
73974;BME280;62336;-26.094;27.994;2022-11-15T03:56:55;85296.47;;;31.01;17.94
73974;BME280;62336;-26.094;27.994;2022-11-15T03:59:21;85303.27;;;30.64;18.13
73974;BME280;62336;-26.094;27.994;2022-11-15T04:01:47;85304.68;;;30.72;17.82
73974;BME280;62336;-26.094;27.994;2022-11-15T04:04:13;85305.58;;;30.75;17.83
73974;BME280;62336;-26.094;27.994;2022-11-15T04:06:38;85307.40;;;30.82;17.74
73974;BME280;62336;-26.094;27.994;2022-11-15T04:08:08;85309.30;;;31.65;18.00
73974;BME280;62336;-26.094;27.994;2022-11-15T04:10:33;85310.80;;;32.08;18.71
73974;BME280;62336;-26.094;27.994;2022-11-15T04:13:02;85318.81;;;31.18;19.76
73974;BME280;62336;-26.094;27.994;2022-11-15T04:15:24;85324.85;;;30.73;20.48
73974;BME280;62336;-26.094;27.994;2022-11-15T04:17:52;85325.69;;;29.93;21.06
73974;BME280;62336;-26.094;27.994;2022-11-15T04:20:17;85331.29;;;29.55;21.43
73974;BME280;62336;-26.094;27.994;2022-11-15T04:22:42;85334.13;;;29.81;21.83
73974;BME280;62336;-26.094;27.994;2022-11-15T04:25:08;85331.06;;;28.94;22.42
73974;BME280;62336;-26.094;27.994;2022-11-15T04:27:33;85329.71;;;28.94;22.58
73974;BME280;62336;-26.094;27.994;2022-11-15T04:30:00;85327.32;;;28.97;22.48
73974;BME280;62336;-26.094;27.994;2022-11-15T04:32:24;85321.56;;;28.78;22.61
73974;BME280;62336;-26.094;27.994;2022-11-15T04:34:51;85324.61;;;28.86;22.75
73974;BME280;62336;-26.094;27.994;2022-11-15T04:37:16;85330.06;;;28.62;23.22
73974;BME280;62336;-26.094;27.994;2022-11-15T04:39:43;85328.95;;;28.31;23.07
73974;BME280;62336;-26.094;27.994;2022-11-15T04:42:08;85333.07;;;28.42;23.26
73974;BME280;62336;-26.094;27.994;2022-11-15T04:44:34;85328.99;;;28.61;22.85
73974;BME280;62336;-26.094;27.994;2022-11-15T04:47:00;85333.41;;;28.97;22.70
73974;BME280;62336;-26.094;27.994;2022-11-15T04:49:25;85335.72;;;28.74;22.90
73974;BME280;62336;-26.094;27.994;2022-11-15T04:51:51;85334.51;;;28.15;22.97
73974;BME280;62336;-26.094;27.994;2022-11-15T04:54:17;85333.69;;;27.93;23.28
73974;BME280;62336;-26.094;27.994;2022-11-15T04:56:41;85332.25;;;28.07;23.30
73974;BME280;62336;-26.094;27.994;2022-11-15T04:59:06;85333.37;;;28.36;23.08
73974;BME280;62336;-26.094;27.994;2022-11-15T05:01:32;85337.63;;;29.05;22.85
73974;BME280;62336;-26.094;27.994;2022-11-15T05:03:58;85334.93;;;28.53;23.10
73974;BME280;62336;-26.094;27.994;2022-11-15T05:06:23;85334.95;;;28.46;23.03
73974;BME280;62336;-26.094;27.994;2022-11-15T05:08:48;85336.48;;;28.35;23.36
73974;BME280;62336;-26.094;27.994;2022-11-15T05:11:13;85341.45;;;29.04;23.20
73974;BME280;62336;-26.094;27.994;2022-11-15T05:13:38;85342.40;;;28.64;22.89
73974;BME280;62336;-26.094;27.994;2022-11-15T05:16:04;85345.62;;;28.28;23.10
73974;BME280;62336;-26.094;27.994;2022-11-15T05:18:29;85346.85;;;28.21;23.09
73974;BME280;62336;-26.094;27.994;2022-11-15T05:20:54;85345.42;;;28.73;22.94
73974;BME280;62336;-26.094;27.994;2022-11-15T05:23:19;85342.50;;;28.54;22.92
73974;BME280;62336;-26.094;27.994;2022-11-15T05:25:45;85342.20;;;28.30;22.73
73974;BME280;62336;-26.094;27.994;2022-11-15T05:28:10;85342.97;;;28.63;22.58
73974;BME280;62336;-26.094;27.994;2022-11-15T05:30:35;85339.40;;;28.43;23.02
73974;BME280;62336;-26.094;27.994;2022-11-15T05:33:02;85342.08;;;28.08;23.15
73974;BME280;62336;-26.094;27.994;2022-11-15T05:35:30;85338.31;;;28.02;23.09
73974;BME280;62336;-26.094;27.994;2022-11-15T05:37:52;85339.17;;;28.62;22.72
73974;BME280;62336;-26.094;27.994;2022-11-15T05:40:18;85337.84;;;28.24;23.23
73974;BME280;62336;-26.094;27.994;2022-11-15T05:42:42;85339.06;;;28.41;23.06
73974;BME280;62336;-26.094;27.994;2022-11-15T05:45:09;85338.44;;;28.71;22.95
73974;BME280;62336;-26.094;27.994;2022-11-15T05:47:34;85335.68;;;28.37;22.99
73974;BME280;62336;-26.094;27.994;2022-11-15T05:49:58;85335.09;;;28.89;23.09
73974;BME280;62336;-26.094;27.994;2022-11-15T05:52:27;85330.23;;;28.08;23.28
73974;BME280;62336;-26.094;27.994;2022-11-15T05:54:48;85330.76;;;28.53;22.85
73974;BME280;62336;-26.094;27.994;2022-11-15T05:57:15;85330.76;;;28.65;22.83
73974;BME280;62336;-26.094;27.994;2022-11-15T05:59:39;85330.07;;;28.33;23.16
73974;BME280;62336;-26.094;27.994;2022-11-15T06:02:04;85328.42;;;28.55;22.70
73974;BME280;62336;-26.094;27.994;2022-11-15T06:04:29;85327.85;;;28.96;22.60
73974;BME280;62336;-26.094;27.994;2022-11-15T06:06:54;85327.82;;;28.84;22.90
73974;BME280;62336;-26.094;27.994;2022-11-15T06:09:20;85323.51;;;28.63;22.86
73974;BME280;62336;-26.094;27.994;2022-11-15T06:11:45;85322.42;;;28.75;22.99
73974;BME280;62336;-26.094;27.994;2022-11-15T06:14:10;85326.23;;;29.02;22.73
73974;BME280;62336;-26.094;27.994;2022-11-15T06:16:36;85324.06;;;28.57;22.82
73974;BME280;62336;-26.094;27.994;2022-11-15T06:19:01;85322.63;;;28.95;22.58
73974;BME280;62336;-26.094;27.994;2022-11-15T06:21:27;85320.29;;;29.23;22.36
73974;BME280;62336;-26.094;27.994;2022-11-15T06:23:53;85318.42;;;29.41;22.23
73974;BME280;62336;-26.094;27.994;2022-11-15T06:26:18;85317.88;;;29.77;22.29
73974;BME280;62336;-26.094;27.994;2022-11-15T06:28:43;85316.95;;;29.24;22.06
73974;BME280;62336;-26.094;27.994;2022-11-15T06:31:11;85310.62;;;29.54;22.19
73974;BME280;62336;-26.094;27.994;2022-11-15T06:33:36;85313.68;;;29.73;21.92
73974;BME280;62336;-26.094;27.994;2022-11-15T06:36:02;85313.29;;;30.26;21.93
73974;BME280;62336;-26.094;27.994;2022-11-15T06:38:27;85312.16;;;30.17;21.79
73974;BME280;62336;-26.094;27.994;2022-11-15T06:40:53;85315.33;;;29.70;21.86
73974;BME280;62336;-26.094;27.994;2022-11-15T06:43:19;85314.92;;;29.58;22.18
73974;BME280;62336;-26.094;27.994;2022-11-15T06:45:45;85310.48;;;29.81;21.94
73974;BME280;62336;-26.094;27.994;2022-11-15T06:48:09;85310.27;;;29.81;21.74
73974;BME280;62336;-26.094;27.994;2022-11-15T06:50:35;85307.12;;;29.84;21.90
73974;BME280;62336;-26.094;27.994;2022-11-15T06:53:02;85304.45;;;29.63;22.21
73974;BME280;62336;-26.094;27.994;2022-11-15T06:55:27;85307.73;;;29.84;22.01
73974;BME280;62336;-26.094;27.994;2022-11-15T06:57:52;85306.66;;;29.52;22.09
73974;BME280;62336;-26.094;27.994;2022-11-15T07:00:20;85306.51;;;29.80;22.11
73974;BME280;62336;-26.094;27.994;2022-11-15T07:02:43;85305.16;;;30.04;22.04
73974;BME280;62336;-26.094;27.994;2022-11-15T07:05:09;85306.42;;;30.05;22.25
73974;BME280;62336;-26.094;27.994;2022-11-15T07:07:35;85308.53;;;30.09;21.86
73974;BME280;62336;-26.094;27.994;2022-11-15T07:10:01;85309.67;;;30.16;21.98
73974;BME280;62336;-26.094;27.994;2022-11-15T07:12:27;85305.70;;;30.62;21.83
73974;BME280;62336;-26.094;27.994;2022-11-15T07:14:52;85300.48;;;29.99;22.09
73974;BME280;62336;-26.094;27.994;2022-11-15T07:17:18;85297.01;;;30.24;21.68
73974;BME280;62336;-26.094;27.994;2022-11-15T07:19:44;85296.92;;;29.92;21.95
73974;BME280;62336;-26.094;27.994;2022-11-15T07:22:09;85297.79;;;30.24;21.66
73974;BME280;62336;-26.094;27.994;2022-11-15T07:24:35;85295.91;;;30.08;21.92
73974;BME280;62336;-26.094;27.994;2022-11-15T07:27:01;85295.73;;;29.80;22.33
73974;BME280;62336;-26.094;27.994;2022-11-15T07:29:27;85291.98;;;30.11;21.85
73974;BME280;62336;-26.094;27.994;2022-11-15T07:31:52;85296.67;;;30.49;21.73
73974;BME280;62336;-26.094;27.994;2022-11-15T07:34:18;85297.23;;;30.03;21.74
73974;BME280;62336;-26.094;27.994;2022-11-15T07:36:44;85290.64;;;29.65;21.99
73974;BME280;62336;-26.094;27.994;2022-11-15T07:39:09;85290.40;;;29.86;22.18
73974;BME280;62336;-26.094;27.994;2022-11-15T07:41:35;85286.65;;;30.63;21.71
73974;BME280;62336;-26.094;27.994;2022-11-15T07:44:02;85280.12;;;30.50;21.60
73974;BME280;62336;-26.094;27.994;2022-11-15T07:46:27;85276.59;;;30.37;21.20
73974;BME280;62336;-26.094;27.994;2022-11-15T07:48:52;85271.45;;;30.39;21.64
73974;BME280;62336;-26.094;27.994;2022-11-15T07:51:18;85267.22;;;29.86;21.61
73974;BME280;62336;-26.094;27.994;2022-11-15T07:53:43;85264.94;;;30.36;21.26
73974;BME280;62336;-26.094;27.994;2022-11-15T07:56:08;85261.13;;;30.53;21.36
73974;BME280;62336;-26.094;27.994;2022-11-15T07:58:34;85255.70;;;31.02;21.29
73974;BME280;62336;-26.094;27.994;2022-11-15T08:01:01;85256.32;;;31.14;21.06
73974;BME280;62336;-26.094;27.994;2022-11-15T08:03:24;85254.32;;;31.18;21.31
73974;BME280;62336;-26.094;27.994;2022-11-15T08:05:52;85250.30;;;31.50;21.13
73974;BME280;62336;-26.094;27.994;2022-11-15T08:08:15;85251.92;;;31.54;20.88
73974;BME280;62336;-26.094;27.994;2022-11-15T08:10:42;85248.10;;;31.45;20.34
73974;BME280;62336;-26.094;27.994;2022-11-15T08:13:09;85248.66;;;30.98;20.81
73974;BME280;62336;-26.094;27.994;2022-11-15T08:15:34;85246.25;;;31.33;21.08
73974;BME280;62336;-26.094;27.994;2022-11-15T08:18:02;85245.33;;;31.75;20.98
73974;BME280;62336;-26.094;27.994;2022-11-15T08:20:26;85238.67;;;31.82;20.66
73974;BME280;62336;-26.094;27.994;2022-11-15T08:22:50;85235.96;;;31.72;20.83
73974;BME280;62336;-26.094;27.994;2022-11-15T08:25:15;85231.45;;;31.77;20.77
73974;BME280;62336;-26.094;27.994;2022-11-15T08:27:41;85230.91;;;31.91;20.44
73974;BME280;62336;-26.094;27.994;2022-11-15T08:30:07;85226.85;;;31.65;20.29
73974;BME280;62336;-26.094;27.994;2022-11-15T08:32:32;85224.21;;;31.75;20.14
73974;BME280;62336;-26.094;27.994;2022-11-15T08:34:58;85219.87;;;31.30;20.43
73974;BME280;62336;-26.094;27.994;2022-11-15T08:37:24;85218.69;;;31.50;20.60
73974;BME280;62336;-26.094;27.994;2022-11-15T08:39:50;85209.95;;;31.83;20.47
73974;BME280;62336;-26.094;27.994;2022-11-15T08:42:15;85210.38;;;31.89;20.61
73974;BME280;62336;-26.094;27.994;2022-11-15T08:44:40;85203.36;;;31.75;20.17
73974;BME280;62336;-26.094;27.994;2022-11-15T08:47:08;85202.90;;;32.05;20.36
73974;BME280;62336;-26.094;27.994;2022-11-15T08:49:32;85199.74;;;31.89;20.14
73974;BME280;62336;-26.094;27.994;2022-11-15T08:51:58;85194.89;;;31.69;20.34
73974;BME280;62336;-26.094;27.994;2022-11-15T08:54:24;85197.53;;;31.77;20.58
73974;BME280;62336;-26.094;27.994;2022-11-15T08:56:50;85193.92;;;32.12;20.67
73974;BME280;62336;-26.094;27.994;2022-11-15T08:59:15;85191.98;;;32.09;20.39
73974;BME280;62336;-26.094;27.994;2022-11-15T09:01:41;85187.76;;;31.88;20.49
73974;BME280;62336;-26.094;27.994;2022-11-15T09:04:07;85186.85;;;32.16;20.41
73974;BME280;62336;-26.094;27.994;2022-11-15T09:06:32;85186.93;;;32.25;20.26
73974;BME280;62336;-26.094;27.994;2022-11-15T09:08:59;85181.84;;;32.27;20.49
73974;BME280;62336;-26.094;27.994;2022-11-15T09:11:23;85178.89;;;32.01;20.03
73974;BME280;62336;-26.094;27.994;2022-11-15T09:13:49;85168.35;;;32.43;19.99
73974;BME280;62336;-26.094;27.994;2022-11-15T09:16:14;85165.03;;;32.92;19.43
73974;BME280;62336;-26.094;27.994;2022-11-15T09:18:40;85159.37;;;33.02;19.52
73974;BME280;62336;-26.094;27.994;2022-11-15T09:21:06;85160.37;;;32.88;19.51
73974;BME280;62336;-26.094;27.994;2022-11-15T09:23:31;85154.17;;;33.02;19.45
73974;BME280;62336;-26.094;27.994;2022-11-15T09:26:01;85151.84;;;32.96;19.61
73974;BME280;62336;-26.094;27.994;2022-11-15T09:28:22;85151.05;;;33.48;20.45
73974;BME280;62336;-26.094;27.994;2022-11-15T09:30:48;85145.17;;;33.02;19.44
73974;BME280;62336;-26.094;27.994;2022-11-15T09:33:14;85141.62;;;32.47;19.26
73974;BME280;62336;-26.094;27.994;2022-11-15T09:35:40;85142.67;;;33.08;19.74
73974;BME280;62336;-26.094;27.994;2022-11-15T09:38:05;85137.40;;;32.95;19.54
73974;BME280;62336;-26.094;27.994;2022-11-15T09:40:32;85134.06;;;33.12;19.01
73974;BME280;62336;-26.094;27.994;2022-11-15T09:43:08;85138.56;;;33.08;19.58
73974;BME280;62336;-26.094;27.994;2022-11-15T09:45:26;85127.11;;;32.90;19.15
73974;BME280;62336;-26.094;27.994;2022-11-15T09:50:15;85128.12;;;33.46;19.44
73974;BME280;62336;-26.094;27.994;2022-11-15T09:52:41;85127.34;;;33.43;19.03
73974;BME280;62336;-26.094;27.994;2022-11-15T09:55:03;85117.51;;;33.83;19.15
73974;BME280;62336;-26.094;27.994;2022-11-15T09:57:32;85118.55;;;33.62;18.80
73974;BME280;62336;-26.094;27.994;2022-11-15T10:00:04;85113.77;;;34.14;18.59
73974;BME280;62336;-26.094;27.994;2022-11-15T10:04:43;85104.89;;;33.74;19.40
73974;BME280;62336;-26.094;27.994;2022-11-15T10:07:16;85099.96;;;33.47;19.01
73974;BME280;62336;-26.094;27.994;2022-11-15T10:09:38;85098.92;;;32.87;19.15
73974;BME280;62336;-26.094;27.994;2022-11-15T10:12:00;85097.48;;;33.29;19.64
73974;BME280;62336;-26.094;27.994;2022-11-15T10:14:27;85092.04;;;33.53;18.96
73974;BME280;62336;-26.094;27.994;2022-11-15T10:17:02;85091.55;;;33.75;18.70
73974;BME280;62336;-26.094;27.994;2022-11-15T10:19:19;85079.34;;;34.24;18.12
73974;BME280;62336;-26.094;27.994;2022-11-15T10:21:50;85086.00;;;34.50;18.55
73974;BME280;62336;-26.094;27.994;2022-11-15T10:24:11;85082.34;;;34.33;18.18
73974;BME280;62336;-26.094;27.994;2022-11-15T10:26:29;85072.31;;;33.98;18.13
73974;BME280;62336;-26.094;27.994;2022-11-15T10:28:54;85069.10;;;34.50;18.30
73974;BME280;62336;-26.094;27.994;2022-11-15T10:31:25;85073.33;;;33.93;18.35
73974;BME280;62336;-26.094;27.994;2022-11-15T10:33:44;85070.59;;;34.43;18.09
73974;BME280;62336;-26.094;27.994;2022-11-15T10:36:18;85064.05;;;34.51;17.84
73974;BME280;62336;-26.094;27.994;2022-11-15T10:41:07;85064.49;;;34.70;18.16
73974;BME280;62336;-26.094;27.994;2022-11-15T10:43:24;85069.04;;;34.80;18.38
73974;BME280;62336;-26.094;27.994;2022-11-15T10:45:49;85060.93;;;35.16;18.18
73974;BME280;62336;-26.094;27.994;2022-11-15T10:48:24;85056.49;;;35.01;17.63
73974;BME280;62336;-26.094;27.994;2022-11-15T10:50:41;85054.51;;;35.09;17.64
73974;BME280;62336;-26.094;27.994;2022-11-15T10:53:12;85054.37;;;34.81;17.47
73974;BME280;62336;-26.094;27.994;2022-11-15T10:55:31;85058.32;;;34.90;16.91
73974;BME280;62336;-26.094;27.994;2022-11-15T10:57:59;85056.57;;;34.67;17.29
73974;BME280;62336;-26.094;27.994;2022-11-15T11:00:31;85036.08;;;34.92;17.35
73974;BME280;62336;-26.094;27.994;2022-11-15T11:07:36;85037.60;;;34.93;17.49
73974;BME280;62336;-26.094;27.994;2022-11-15T11:10:05;85029.09;;;34.96;17.79
73974;BME280;62336;-26.094;27.994;2022-11-15T11:12:30;85027.27;;;35.09;17.78
73974;BME280;62336;-26.094;27.994;2022-11-15T11:14:52;85023.71;;;35.03;17.60
73974;BME280;62336;-26.094;27.994;2022-11-15T11:17:25;85018.33;;;35.03;17.54
73974;BME280;62336;-26.094;27.994;2022-11-15T11:19:54;85017.65;;;35.03;17.23
73974;BME280;62336;-26.094;27.994;2022-11-15T11:22:17;85012.46;;;35.09;17.44
73974;BME280;62336;-26.094;27.994;2022-11-15T11:24:36;85004.82;;;34.68;17.38
73974;BME280;62336;-26.094;27.994;2022-11-15T11:27:08;85000.20;;;35.19;17.73
73974;BME280;62336;-26.094;27.994;2022-11-15T11:29:35;84997.00;;;34.98;18.06
73974;BME280;62336;-26.094;27.994;2022-11-15T11:31:54;84995.03;;;34.59;17.75
73974;BME280;62336;-26.094;27.994;2022-11-15T11:34:19;84992.73;;;35.20;17.85
73974;BME280;62336;-26.094;27.994;2022-11-15T11:36:43;84993.62;;;35.29;17.52
73974;BME280;62336;-26.094;27.994;2022-11-15T11:39:17;84993.34;;;34.84;17.52
73974;BME280;62336;-26.094;27.994;2022-11-15T11:41:40;84991.58;;;35.07;17.19
73974;BME280;62336;-26.094;27.994;2022-11-15T11:44:02;84983.90;;;34.79;16.88
73974;BME280;62336;-26.094;27.994;2022-11-15T11:48:48;84979.65;;;34.81;16.94
73974;BME280;62336;-26.094;27.994;2022-11-15T11:51:17;84980.87;;;34.85;17.44
73974;BME280;62336;-26.094;27.994;2022-11-15T11:53:39;84975.46;;;34.72;17.44
73974;BME280;62336;-26.094;27.994;2022-11-15T11:56:05;84970.05;;;35.21;17.42
73974;BME280;62336;-26.094;27.994;2022-11-15T11:58:31;84970.20;;;35.01;17.99
73974;BME280;62336;-26.094;27.994;2022-11-15T12:00:54;84968.67;;;34.84;17.65
73974;BME280;62336;-26.094;27.994;2022-11-15T12:03:20;84957.00;;;35.24;17.40
73974;BME280;62336;-26.094;27.994;2022-11-15T12:05:43;84951.36;;;35.21;17.17
73974;BME280;62336;-26.094;27.994;2022-11-15T12:08:20;84954.75;;;35.32;16.74
73974;BME280;62336;-26.094;27.994;2022-11-15T12:10:32;84951.92;;;35.69;16.49
73974;BME280;62336;-26.094;27.994;2022-11-15T12:13:02;84946.41;;;35.57;16.98
73974;BME280;62336;-26.094;27.994;2022-11-15T12:15:24;84948.90;;;35.60;16.05
73974;BME280;62336;-26.094;27.994;2022-11-15T12:17:48;84945.09;;;35.12;16.47
73974;BME280;62336;-26.094;27.994;2022-11-15T12:20:18;84942.75;;;35.54;16.63
73974;BME280;62336;-26.094;27.994;2022-11-15T12:22:43;84941.71;;;35.98;16.51
73974;BME280;62336;-26.094;27.994;2022-11-15T12:25:06;84939.14;;;36.21;16.20
73974;BME280;62336;-26.094;27.994;2022-11-15T12:27:33;84938.38;;;36.64;16.36
73974;BME280;62336;-26.094;27.994;2022-11-15T12:29:55;84932.89;;;36.44;16.56
73974;BME280;62336;-26.094;27.994;2022-11-15T12:32:26;84931.55;;;36.11;15.90
73974;BME280;62336;-26.094;27.994;2022-11-15T12:34:44;84931.14;;;36.13;15.94
73974;BME280;62336;-26.094;27.994;2022-11-15T12:47:00;84925.20;;;35.48;17.12
73974;BME280;62336;-26.094;27.994;2022-11-15T12:56:30;84910.24;;;35.44;16.09
73974;BME280;62336;-26.094;27.994;2022-11-15T12:58:57;84908.68;;;35.84;16.76
73974;BME280;62336;-26.094;27.994;2022-11-15T13:08:41;84901.06;;;35.90;16.79
73974;BME280;62336;-26.094;27.994;2022-11-15T13:15:55;84902.08;;;35.37;16.37
73974;BME280;62336;-26.094;27.994;2022-11-15T13:18:29;84900.04;;;35.96;16.21
73974;BME280;62336;-26.094;27.994;2022-11-15T13:20:45;84897.35;;;35.64;16.07
73974;BME280;62336;-26.094;27.994;2022-11-15T13:23:11;84902.27;;;35.91;16.12
73974;BME280;62336;-26.094;27.994;2022-11-15T13:27:58;84899.37;;;36.16;15.78
73974;BME280;62336;-26.094;27.994;2022-11-15T13:30:25;84893.27;;;36.48;15.82
73974;BME280;62336;-26.094;27.994;2022-11-15T13:32:48;84893.49;;;36.41;17.28
73974;BME280;62336;-26.094;27.994;2022-11-15T13:35:20;84889.19;;;36.44;15.77
73974;BME280;62336;-26.094;27.994;2022-11-15T13:37:39;84889.27;;;35.61;15.75
73974;BME280;62336;-26.094;27.994;2022-11-15T13:40:18;84890.05;;;36.39;16.01
73974;BME280;62336;-26.094;27.994;2022-11-15T13:42:29;84892.48;;;36.27;16.58
73974;BME280;62336;-26.094;27.994;2022-11-15T13:44:56;84886.01;;;35.93;15.76
73974;BME280;62336;-26.094;27.994;2022-11-15T13:47:20;84886.00;;;36.22;15.83
73974;BME280;62336;-26.094;27.994;2022-11-15T13:49:44;84885.43;;;36.26;15.75
73974;BME280;62336;-26.094;27.994;2022-11-15T13:52:13;84880.90;;;35.85;15.97
73974;BME280;62336;-26.094;27.994;2022-11-15T13:54:39;84878.99;;;36.03;16.10
73974;BME280;62336;-26.094;27.994;2022-11-15T13:57:04;84877.74;;;36.03;15.92
73974;BME280;62336;-26.094;27.994;2022-11-15T13:59:27;84875.37;;;36.14;15.92
73974;BME280;62336;-26.094;27.994;2022-11-15T14:01:51;84873.59;;;36.19;16.03
73974;BME280;62336;-26.094;27.994;2022-11-15T14:04:20;84869.51;;;36.26;15.71
73974;BME280;62336;-26.094;27.994;2022-11-15T14:06:48;84873.08;;;36.46;15.85
73974;BME280;62336;-26.094;27.994;2022-11-15T14:11:31;84867.50;;;36.79;15.28
73974;BME280;62336;-26.094;27.994;2022-11-15T14:18:49;84861.85;;;36.39;15.48
73974;BME280;62336;-26.094;27.994;2022-11-15T14:21:13;84860.77;;;36.51;15.28
73974;BME280;62336;-26.094;27.994;2022-11-15T14:23:38;84858.76;;;36.43;14.96
73974;BME280;62336;-26.094;27.994;2022-11-15T14:26:03;84856.69;;;36.39;15.59
73974;BME280;62336;-26.094;27.994;2022-11-15T14:28:31;84853.52;;;36.33;15.83
73974;BME280;62336;-26.094;27.994;2022-11-15T14:30:55;84857.37;;;36.56;16.21
73974;BME280;62336;-26.094;27.994;2022-11-15T14:33:22;84856.44;;;36.59;15.54
73974;BME280;62336;-26.094;27.994;2022-11-15T14:35:44;84853.28;;;36.67;15.52